Time;durP1;ratioP1;P1;durP2;ratioP2;P2;SDS_P1;SDS_P2;PMS_P1;PMS_P2;Temp;Humidity;BMP_temperature;BMP_pressure;BME280_temperature;BME280_humidity;BME280_pressure;Samples;Min_cycle;Max_cycle;Signal;HPM_P1;HPM_P2
2022/12/18 00:01:24;;;;;;;26.00;14.30;;;3.40;99.90;;;;;;5026636;28;20888;-73
2022/12/18 00:03:51;;;;;;;28.55;16.23;;;3.40;99.90;;;;;;5053078;28;20103;-71
2022/12/18 00:06:18;;;;;;;28.27;15.48;;;3.40;99.90;;;;;;5048545;28;20021;-70
2022/12/18 00:08:45;;;;;;;24.02;14.18;;;3.40;99.90;;;;;;5032917;28;20090;-70
2022/12/18 00:11:14;;;;;;;29.50;16.10;;;3.40;99.90;;;;;;5049475;28;20025;-71
2022/12/18 00:13:40;;;;;;;29.40;16.92;;;3.40;99.90;;;;;;5048867;28;20503;-71
2022/12/18 00:16:09;;;;;;;25.70;16.08;;;3.50;99.90;;;;;;5053374;28;20029;-72
2022/12/18 00:18:35;;;;;;;26.17;15.60;;;3.40;99.90;;;;;;5052853;28;20357;-71
2022/12/18 00:21:04;;;;;;;26.70;14.93;;;3.40;99.90;;;;;;5047801;28;20076;-72
2022/12/18 00:23:30;;;;;;;26.95;14.73;;;3.50;99.90;;;;;;5051292;28;20480;-72
2022/12/18 00:26:05;;;;;;;29.27;15.13;;;3.50;99.90;;;;;;5051995;28;20035;-72
2022/12/18 00:28:31;;;;;;;23.15;14.02;;;3.40;99.90;;;;;;5052155;28;20388;-72
2022/12/18 00:31:00;;;;;;;26.38;14.82;;;3.40;99.90;;;;;;5027935;28;20507;-72
2022/12/18 00:33:27;;;;;;;24.88;13.10;;;3.40;99.90;;;;;;5050340;28;20037;-71
2022/12/18 00:35:52;;;;;;;24.98;15.05;;;3.50;99.90;;;;;;5039404;28;20013;-72
2022/12/18 00:38:19;;;;;;;24.88;13.52;;;3.40;99.90;;;;;;5043370;28;20021;-73
2022/12/18 00:40:44;;;;;;;23.73;13.77;;;3.40;99.90;;;;;;5053138;28;20031;-71
2022/12/18 00:43:12;;;;;;;27.15;14.55;;;3.50;99.90;;;;;;5029132;28;20017;-72
2022/12/18 00:45:38;;;;;;;25.95;14.88;;;3.40;99.90;;;;;;5052396;28;20078;-71
2022/12/18 00:48:04;;;;;;;26.48;14.93;;;3.40;99.90;;;;;;5052601;28;20040;-72
2022/12/18 00:50:30;;;;;;;24.42;13.75;;;3.50;99.90;;;;;;5035280;28;20033;-71
2022/12/18 00:52:56;;;;;;;27.33;14.88;;;3.40;99.90;;;;;;5031523;28;20269;-71
2022/12/18 00:55:21;;;;;;;24.02;13.82;;;3.40;99.90;;;;;;5028362;28;20037;-72
2022/12/18 00:57:47;;;;;;;27.27;13.85;;;3.40;99.90;;;;;;5046749;28;20021;-72
2022/12/18 01:00:14;;;;;;;25.75;14.65;;;3.40;99.90;;;;;;5049898;28;20029;-72
2022/12/18 01:02:41;;;;;;;21.60;13.02;;;3.50;99.90;;;;;;5016544;28;20028;-72
2022/12/18 01:05:12;;;;;;;27.75;12.95;;;3.40;99.90;;;;;;5022900;28;20087;-72
2022/12/18 01:07:38;;;;;;;24.83;13.18;;;3.50;99.90;;;;;;5051916;28;20053;-72
2022/12/18 01:10:04;;;;;;;25.42;14.70;;;3.50;99.90;;;;;;5046427;28;20380;-72
2022/12/18 01:12:30;;;;;;;23.27;13.43;;;3.40;99.90;;;;;;5049177;28;20562;-71
2022/12/18 01:14:56;;;;;;;28.75;13.18;;;3.40;99.90;;;;;;5050441;28;20077;-72
2022/12/18 01:17:22;;;;;;;25.35;13.63;;;3.40;99.90;;;;;;5046356;28;20047;-72
2022/12/18 01:19:48;;;;;;;25.33;13.88;;;3.40;99.90;;;;;;5049635;28;20029;-72
2022/12/18 01:22:14;;;;;;;25.85;12.48;;;3.30;99.90;;;;;;5049221;28;20087;-72
2022/12/18 01:24:40;;;;;;;24.55;13.50;;;3.30;99.90;;;;;;5049007;28;20502;-73
2022/12/18 01:27:06;;;;;;;28.85;15.45;;;3.30;99.90;;;;;;5027237;28;20242;-72
2022/12/18 01:29:32;;;;;;;27.23;14.93;;;3.30;99.90;;;;;;5048093;28;20070;-72
2022/12/18 01:31:57;;;;;;;27.20;15.50;;;3.30;99.90;;;;;;5043326;28;20032;-72
2022/12/18 01:34:24;;;;;;;24.70;14.18;;;3.30;99.90;;;;;;5031465;28;20056;-72
2022/12/18 01:36:52;;;;;;;27.33;15.48;;;3.20;99.90;;;;;;5048831;28;20540;-73
2022/12/18 01:39:18;;;;;;;24.13;12.98;;;3.30;99.90;;;;;;5041742;28;20025;-72
2022/12/18 01:42:03;;;;;;;25.50;14.57;;;3.20;99.90;;;;;;5050507;28;20170;-72
2022/12/18 01:45:03;;;;;;;25.65;15.02;;;3.20;99.90;;;;;;5050186;28;20036;-72
2022/12/18 01:47:38;;;;;;;22.70;14.38;;;3.20;99.90;;;;;;5025836;28;20033;-72
2022/12/18 01:50:16;;;;;;;25.10;13.65;;;3.20;99.90;;;;;;5035322;28;20049;-72
2022/12/18 01:52:46;;;;;;;24.00;14.07;;;3.20;99.90;;;;;;5047772;28;20060;-72
2022/12/18 01:55:14;;;;;;;27.92;15.18;;;3.20;99.90;;;;;;5051881;28;20025;-73
2022/12/18 01:57:41;;;;;;;26.92;15.20;;;3.20;99.90;;;;;;5051377;28;20812;-72
2022/12/18 02:00:17;;;;;;;25.63;14.55;;;3.20;99.90;;;;;;5051833;28;20041;-72
2022/12/18 02:02:45;;;;;;;26.52;14.48;;;3.20;99.90;;;;;;5051569;28;20108;-73
2022/12/18 02:05:16;;;;;;;29.52;15.20;;;3.30;99.90;;;;;;5033140;28;20124;-72
2022/12/18 02:08:07;;;;;;;27.25;14.10;;;3.30;99.90;;;;;;5033830;28;20032;-72
2022/12/18 02:11:10;;;;;;;28.90;15.15;;;3.30;99.90;;;;;;5033378;28;20481;-72
2022/12/18 02:13:45;;;;;;;24.70;15.17;;;3.30;99.90;;;;;;4945056;29;20113;-72
2022/12/18 02:16:19;;;;;;;30.88;15.75;;;3.20;99.90;;;;;;4934178;29;20352;-72
2022/12/18 02:18:50;;;;;;;25.52;13.80;;;3.20;99.90;;;;;;4950128;29;20043;-73
2022/12/18 02:21:31;;;;;;;27.73;15.27;;;3.20;99.90;;;;;;4949187;28;20101;-72
2022/12/18 02:24:15;;;;;;;30.15;16.17;;;3.20;99.90;;;;;;4949473;29;20036;-71
2022/12/18 02:26:48;;;;;;;25.90;14.73;;;3.10;99.90;;;;;;4948941;29;20403;-71
2022/12/18 02:29:20;;;;;;;29.05;13.55;;;3.10;99.90;;;;;;4944863;29;20028;-72
2022/12/18 02:31:52;;;;;;;27.55;15.45;;;3.10;99.90;;;;;;4946215;29;20530;-72
2022/12/18 02:34:21;;;;;;;28.10;16.10;;;3.00;99.90;;;;;;4949185;29;20115;-72
2022/12/18 02:36:49;;;;;;;26.88;15.45;;;3.00;99.90;;;;;;4941034;29;20496;-72
2022/12/18 02:39:17;;;;;;;25.90;15.32;;;3.00;99.90;;;;;;4931598;29;20567;-72
2022/12/18 02:41:57;;;;;;;29.40;16.27;;;3.00;99.90;;;;;;4929908;29;20053;-72
2022/12/18 02:44:24;;;;;;;29.85;15.32;;;3.00;99.90;;;;;;4949177;29;20122;-72
2022/12/18 02:46:52;;;;;;;29.52;16.67;;;3.00;99.90;;;;;;4933365;29;20051;-72
2022/12/18 02:49:51;;;;;;;29.00;15.18;;;3.00;99.90;;;;;;4936889;28;20067;-72
2022/12/18 02:52:28;;;;;;;27.33;14.23;;;3.00;99.90;;;;;;4933520;29;20063;-72
2022/12/18 02:55:21;;;;;;;30.98;17.27;;;3.00;99.90;;;;;;4949353;29;20039;-72
2022/12/18 02:58:32;;;;;;;30.73;16.58;;;2.90;99.90;;;;;;4949144;29;20127;-72
2022/12/18 03:01:18;;;;;;;31.70;16.83;;;3.00;99.90;;;;;;4949441;29;20082;-72
2022/12/18 03:03:53;;;;;;;27.25;15.68;;;2.90;99.90;;;;;;4949434;28;20475;-71
2022/12/18 03:06:30;;;;;;;29.80;16.15;;;2.90;99.90;;;;;;4949625;29;20035;-72
2022/12/18 03:09:00;;;;;;;31.25;16.05;;;2.90;99.90;;;;;;4947387;29;20043;-71
2022/12/18 03:14:17;;;;;;;30.05;16.50;;;2.80;99.90;;;;;;4951653;28;20152;-73
2022/12/18 03:16:46;;;;;;;31.15;16.80;;;2.70;99.90;;;;;;4949450;29;20027;-72
2022/12/18 03:19:16;;;;;;;31.50;16.13;;;2.70;99.90;;;;;;4948551;29;20495;-72
2022/12/18 03:21:49;;;;;;;28.58;15.75;;;2.70;99.90;;;;;;4951809;28;20094;-72
2022/12/18 03:24:18;;;;;;;29.20;16.20;;;2.70;99.90;;;;;;4970495;28;20126;-72
2022/12/18 03:26:50;;;;;;;31.75;16.63;;;2.70;99.90;;;;;;4958395;28;20022;-72
2022/12/18 03:29:24;;;;;;;29.58;15.82;;;2.70;99.90;;;;;;5033770;28;20041;-72
2022/12/18 03:32:00;;;;;;;32.50;18.23;;;2.60;99.90;;;;;;5032443;28;20555;-72
2022/12/18 03:34:32;;;;;;;29.60;16.90;;;2.60;99.90;;;;;;5018705;28;20056;-73
2022/12/18 03:37:01;;;;;;;37.30;21.45;;;2.60;99.90;;;;;;5034774;28;20484;-73
2022/12/18 03:39:28;;;;;;;34.97;18.48;;;2.60;99.90;;;;;;5053056;28;20027;-73
2022/12/18 03:42:02;;;;;;;36.42;19.02;;;2.60;99.90;;;;;;5035182;28;20064;-72
2022/12/18 03:44:44;;;;;;;;;;;2.60;99.90;;;;;;5035013;28;20044;-73
2022/12/18 03:47:38;;;;;;;30.23;18.30;;;2.60;99.90;;;;;;5034882;28;19917;-73
2022/12/18 03:50:08;;;;;;;28.73;17.33;;;2.50;99.90;;;;;;5028635;28;20068;-73
2022/12/18 03:53:02;;;;;;;33.67;17.00;;;2.50;99.90;;;;;;5030856;28;20108;-72
2022/12/18 03:55:33;;;;;;;28.90;17.42;;;2.50;99.90;;;;;;4971815;28;20490;-72
2022/12/18 03:58:04;;;;;;;30.05;17.52;;;2.50;99.90;;;;;;4955468;28;20035;-72
2022/12/18 04:00:40;;;;;;;30.60;17.95;;;2.40;99.90;;;;;;4971132;28;20038;-72
2022/12/18 04:03:10;;;;;;;29.73;17.08;;;2.40;99.90;;;;;;4955405;28;20509;-72
2022/12/18 04:05:45;;;;;;;30.58;16.60;;;2.40;99.90;;;;;;4955024;28;20435;-72
2022/12/18 04:08:13;;;;;;;31.20;17.25;;;2.40;99.90;;;;;;4971151;28;20031;-73
2022/12/18 04:10:42;;;;;;;30.73;17.45;;;2.40;99.90;;;;;;4955395;28;20023;-73
2022/12/18 04:13:09;;;;;;;32.83;19.45;;;2.40;99.90;;;;;;4954744;28;20045;-72
2022/12/18 04:15:37;;;;;;;35.08;20.20;;;2.40;99.90;;;;;;4954978;28;20029;-73
2022/12/18 04:18:04;;;;;;;32.95;18.52;;;2.40;99.90;;;;;;4955024;28;20085;-71
2022/12/18 04:20:37;;;;;;;;;;;2.30;99.90;;;;;;4955289;28;20035;-71
2022/12/18 04:23:03;;;;;;;33.85;19.42;;;2.30;99.90;;;;;;4970540;28;20369;-72
2022/12/18 04:25:29;;;;;;;30.73;17.75;;;2.30;99.90;;;;;;4954204;28;20514;-71
2022/12/18 04:28:05;;;;;;;31.25;18.50;;;2.20;99.90;;;;;;4970278;28;20203;-71
2022/12/18 04:30:32;;;;;;;34.88;20.50;;;2.20;99.90;;;;;;4970707;28;20027;-72
2022/12/18 04:32:58;;;;;;;40.78;21.38;;;2.20;99.90;;;;;;5008712;28;20822;-72
2022/12/18 04:35:24;;;;;;;35.85;20.25;;;2.20;99.90;;;;;;5051054;28;20017;-71
2022/12/18 04:37:49;;;;;;;42.53;22.85;;;2.20;99.90;;;;;;5032915;28;20060;-71
2022/12/18 04:40:15;;;;;;;38.28;20.92;;;2.20;99.90;;;;;;5051562;28;20032;-73
2022/12/18 04:42:45;;;;;;;33.63;18.73;;;2.20;99.90;;;;;;5034238;28;20032;-73
2022/12/18 04:45:11;;;;;;;41.25;22.15;;;2.10;99.90;;;;;;5051784;28;20020;-74
2022/12/18 04:47:36;;;;;;;35.70;19.45;;;2.20;99.90;;;;;;5051465;28;20037;-73
2022/12/18 04:50:04;;;;;;;35.38;19.02;;;2.10;99.90;;;;;;5051661;28;20045;-71
2022/12/18 04:52:30;;;;;;;33.85;19.10;;;2.10;99.90;;;;;;5029666;28;20391;-72
2022/12/18 04:54:55;;;;;;;34.13;18.30;;;2.10;99.90;;;;;;5051708;28;20017;-72
2022/12/18 04:57:21;;;;;;;35.13;19.13;;;2.10;99.90;;;;;;5051361;28;20029;-72
2022/12/18 04:59:47;;;;;;;32.30;18.05;;;2.00;99.90;;;;;;5051698;28;20472;-72
2022/12/18 05:02:13;;;;;;;30.65;18.70;;;2.00;99.90;;;;;;5051115;28;20067;-72
2022/12/18 05:04:39;;;;;;;38.38;21.38;;;2.00;99.90;;;;;;5051193;28;20033;-71
2022/12/18 05:07:04;;;;;;;41.05;21.27;;;2.00;99.90;;;;;;5050669;28;20029;-72
2022/12/18 05:09:30;;;;;;;35.60;20.30;;;2.00;99.90;;;;;;5050546;28;20083;-72
2022/12/18 05:11:56;;;;;;;30.40;18.15;;;2.00;99.90;;;;;;5050834;28;20021;-71
2022/12/18 05:14:22;;;;;;;28.02;18.00;;;2.00;99.90;;;;;;5051023;28;20025;-72
2022/12/18 05:16:48;;;;;;;34.25;18.65;;;2.00;99.90;;;;;;5051405;28;20017;-71
2022/12/18 05:19:14;;;;;;;30.10;16.63;;;2.00;99.90;;;;;;5050838;28;20032;-72
2022/12/18 05:21:40;;;;;;;31.52;17.80;;;1.90;99.90;;;;;;5050976;28;20508;-72
2022/12/18 05:24:06;;;;;;;30.92;17.70;;;1.90;99.90;;;;;;5051001;28;20097;-72
2022/12/18 05:26:32;;;;;;;29.05;17.10;;;1.80;99.90;;;;;;5050989;28;20025;-72
2022/12/18 05:28:57;;;;;;;34.08;19.10;;;1.70;99.90;;;;;;5050590;28;20041;-71
2022/12/18 05:31:23;;;;;;;33.00;18.85;;;1.70;99.90;;;;;;5050962;28;20032;-72
2022/12/18 05:33:49;;;;;;;32.38;18.33;;;1.70;99.90;;;;;;5050567;28;20037;-72
2022/12/18 05:36:15;;;;;;;34.75;19.23;;;1.70;99.90;;;;;;5050720;28;20025;-73
2022/12/18 05:38:41;;;;;;;33.92;19.60;;;1.60;99.90;;;;;;5050476;28;20025;-71
2022/12/18 05:41:08;;;;;;;30.92;17.98;;;1.60;99.90;;;;;;5050309;28;20029;-72
2022/12/18 05:43:36;;;;;;;35.10;20.35;;;1.50;99.90;;;;;;5049906;28;20078;-71
2022/12/18 05:46:13;;;;;;;33.17;19.13;;;1.50;99.90;;;;;;5050193;28;20025;-71
2022/12/18 05:48:38;;;;;;;32.78;19.83;;;1.30;99.90;;;;;;5049848;28;20545;-71
2022/12/18 05:51:10;;;;;;;33.95;19.10;;;1.20;99.90;;;;;;5050506;28;20021;-71
2022/12/18 05:53:36;;;;;;;36.10;20.00;;;1.20;99.90;;;;;;5050503;28;20151;-73
2022/12/18 05:56:05;;;;;;;36.38;19.70;;;1.20;99.90;;;;;;5049840;28;20025;-72
2022/12/18 05:58:31;;;;;;;40.45;18.52;;;1.20;99.90;;;;;;5050314;28;20033;-71
2022/12/18 06:00:58;;;;;;;32.45;18.52;;;1.10;99.90;;;;;;5050250;28;20484;-71
2022/12/18 06:03:24;;;;;;;34.45;18.38;;;1.10;99.90;;;;;;5050264;28;20044;-71
2022/12/18 06:05:50;;;;;;;35.95;19.38;;;1.10;99.90;;;;;;5050141;28;20029;-72
2022/12/18 06:08:16;;;;;;;38.60;19.85;;;1.10;99.90;;;;;;5049682;28;20510;-72
2022/12/18 06:10:41;;;;;;;33.33;19.30;;;1.10;99.90;;;;;;5049770;28;20017;-72
2022/12/18 06:13:08;;;;;;;34.85;21.75;;;1.10;99.90;;;;;;5049660;28;20029;-70
2022/12/18 06:15:37;;;;;;;35.70;21.55;;;1.10;99.90;;;;;;5050038;28;20028;-71
2022/12/18 06:18:03;;;;;;;40.22;22.17;;;1.00;99.90;;;;;;5049967;28;20028;-71
2022/12/18 06:20:28;;;;;;;36.08;21.80;;;1.00;99.90;;;;;;5050221;28;20041;-72
2022/12/18 06:22:54;;;;;;;42.55;22.48;;;1.00;99.90;;;;;;5050031;28;20547;-73
2022/12/18 06:25:20;;;;;;;38.53;22.00;;;1.00;99.90;;;;;;5049979;28;20082;-73
2022/12/18 06:27:47;;;;;;;34.92;21.95;;;0.90;99.90;;;;;;5049878;28;20040;-73
2022/12/18 06:30:15;;;;;;;46.35;27.23;;;0.80;99.90;;;;;;5049743;28;20071;-73
2022/12/18 06:32:40;;;;;;;48.05;27.05;;;0.80;99.90;;;;;;5050021;28;20120;-74
2022/12/18 06:35:07;;;;;;;45.10;25.52;;;0.70;99.90;;;;;;5050081;28;20096;-73
2022/12/18 06:37:32;;;;;;;44.08;28.85;;;0.70;99.90;;;;;;5050334;28;20537;-73
2022/12/18 06:39:58;;;;;;;46.15;25.70;;;0.70;99.90;;;;;;5045259;28;20100;-73
2022/12/18 06:42:25;;;;;;;42.65;25.65;;;0.70;99.90;;;;;;5049391;28;20032;-73
2022/12/18 06:44:50;;;;;;;47.45;28.73;;;0.70;99.90;;;;;;5049594;28;20021;-73
2022/12/18 06:47:16;;;;;;;47.50;29.17;;;0.70;99.90;;;;;;5049818;28;20037;-73
2022/12/18 06:49:43;;;;;;;50.63;30.08;;;0.70;99.90;;;;;;5049948;28;20033;-73
2022/12/18 06:52:09;;;;;;;46.58;31.02;;;0.70;99.90;;;;;;5049407;28;20032;-73
2022/12/18 06:54:34;;;;;;;51.63;29.27;;;0.70;99.90;;;;;;5050066;28;20025;-74
2022/12/18 06:57:00;;;;;;;51.03;32.38;;;0.80;99.90;;;;;;5049646;28;20033;-73
2022/12/18 06:59:26;;;;;;;47.17;30.45;;;0.80;99.90;;;;;;5052048;28;20393;-73
2022/12/18 07:01:52;;;;;;;49.03;30.05;;;0.80;99.90;;;;;;5053433;28;20074;-73
2022/12/18 07:04:17;;;;;;;49.38;29.83;;;1.00;99.90;;;;;;5052965;28;20482;-74
2022/12/18 07:06:43;;;;;;;49.63;28.85;;;1.00;99.90;;;;;;5050405;28;20021;-73
2022/12/18 07:09:09;;;;;;;56.20;29.60;;;1.10;99.90;;;;;;5053573;28;20106;-73
2022/12/18 07:11:35;;;;;;;48.25;29.85;;;1.10;99.90;;;;;;5053333;28;20376;-73
2022/12/18 07:14:01;;;;;;;52.22;29.15;;;1.10;99.90;;;;;;5052513;28;20060;-72
2022/12/18 07:16:30;;;;;;;44.05;25.80;;;1.10;99.90;;;;;;5035035;28;20087;-73
2022/12/18 07:18:56;;;;;;;54.65;32.70;;;1.20;99.90;;;;;;5052509;28;20032;-73
2022/12/18 07:21:24;;;;;;;57.55;31.63;;;1.20;99.90;;;;;;5052755;28;20087;-73
2022/12/18 07:23:50;;;;;;;51.25;30.88;;;1.20;99.90;;;;;;5052314;28;20494;-72
2022/12/18 07:26:18;;;;;;;50.33;28.40;;;1.30;99.90;;;;;;5050283;28;20117;-74
2022/12/18 07:28:44;;;;;;;40.40;24.65;;;1.40;99.90;;;;;;5035347;28;20042;-73
2022/12/18 07:31:14;;;;;;;48.00;28.45;;;1.40;99.90;;;;;;5038994;28;20023;-74
2022/12/18 07:33:40;;;;;;;41.22;22.75;;;1.30;99.90;;;;;;5054891;28;20060;-74
2022/12/18 07:36:08;;;;;;;34.03;20.90;;;1.40;99.90;;;;;;5050406;28;20116;-74
2022/12/18 07:38:34;;;;;;;43.95;24.70;;;1.50;99.90;;;;;;5054807;28;20025;-74
2022/12/18 07:41:04;;;;;;;41.45;22.33;;;1.60;99.90;;;;;;5054634;28;20100;-73
2022/12/18 07:43:30;;;;;;;40.28;23.52;;;1.60;99.90;;;;;;5053822;28;20029;-73
2022/12/18 07:45:56;;;;;;;43.75;24.02;;;1.70;99.90;;;;;;5054357;28;20036;-73
2022/12/18 07:48:21;;;;;;;39.75;23.77;;;1.70;99.90;;;;;;5052697;28;20155;-72
2022/12/18 07:50:47;;;;;;;38.17;23.42;;;1.70;99.90;;;;;;5045210;28;20029;-73
2022/12/18 07:53:14;;;;;;;40.47;24.00;;;1.80;99.90;;;;;;5046539;28;20464;-72
2022/12/18 07:55:43;;;;;;;40.55;22.92;;;1.80;99.90;;;;;;5054330;28;20163;-72
2022/12/18 07:58:08;;;;;;;41.47;23.10;;;1.90;99.90;;;;;;5050329;28;20472;-73
2022/12/18 08:00:35;;;;;;;39.50;21.70;;;1.90;99.90;;;;;;5054141;28;20029;-73
2022/12/18 08:03:01;;;;;;;33.67;20.73;;;2.00;99.90;;;;;;5054940;28;20025;-72
2022/12/18 08:05:27;;;;;;;37.85;23.60;;;2.10;99.90;;;;;;5051671;28;20028;-72
2022/12/18 08:07:53;;;;;;;39.85;23.52;;;2.10;99.90;;;;;;5045229;28;20025;-73
2022/12/18 08:10:20;;;;;;;39.83;23.08;;;2.10;99.90;;;;;;5043649;28;20021;-72
2022/12/18 08:12:49;;;;;;;38.65;22.50;;;2.10;99.90;;;;;;5043482;28;20032;-72
2022/12/18 08:15:15;;;;;;;42.75;23.42;;;2.00;99.90;;;;;;5044875;28;20024;-73
2022/12/18 08:17:41;;;;;;;39.33;21.67;;;1.90;99.90;;;;;;5047680;28;20043;-73
2022/12/18 08:20:08;;;;;;;42.97;21.75;;;1.90;99.90;;;;;;5054567;28;20531;-72
2022/12/18 08:22:35;;;;;;;42.95;24.92;;;2.00;99.90;;;;;;5054449;28;20068;-72
2022/12/18 08:25:04;;;;;;;39.15;21.45;;;2.00;99.90;;;;;;5054271;28;20029;-73
2022/12/18 08:27:30;;;;;;;37.13;21.52;;;2.20;99.90;;;;;;5051944;28;20029;-72
2022/12/18 08:29:57;;;;;;;44.80;26.58;;;2.20;99.90;;;;;;5051310;28;20052;-72
2022/12/18 08:32:23;;;;;;;42.95;23.55;;;2.20;99.90;;;;;;5047646;28;20113;-72
2022/12/18 08:34:49;;;;;;;44.47;24.52;;;2.20;99.90;;;;;;5045248;28;20041;-72
2022/12/18 08:37:15;;;;;;;39.65;22.50;;;2.20;99.90;;;;;;5044570;28;20544;-72
2022/12/18 08:39:41;;;;;;;39.35;20.55;;;2.40;99.90;;;;;;5044415;28;20392;-72
2022/12/18 08:44:51;;;;;;;37.78;22.33;;;2.40;99.90;;;;;;5043114;28;20033;-72
2022/12/18 08:47:17;;;;;;;37.70;22.42;;;2.50;99.90;;;;;;5043945;28;20039;-72
2022/12/18 08:49:42;;;;;;;31.73;19.00;;;2.30;99.90;;;;;;5044636;28;20022;-72
2022/12/18 08:52:08;;;;;;;39.22;22.20;;;2.10;99.90;;;;;;5042549;28;20022;-72
2022/12/18 08:54:34;;;;;;;37.40;21.35;;;2.30;99.90;;;;;;5044090;28;20032;-72
2022/12/18 08:57:00;;;;;;;43.00;23.55;;;2.40;99.90;;;;;;5043701;28;20334;-71
2022/12/18 08:59:27;;;;;;;39.35;21.90;;;2.50;99.90;;;;;;5045056;28;20373;-72
2022/12/18 09:01:54;;;;;;;35.28;21.08;;;2.50;99.90;;;;;;5042081;28;20029;-73
2022/12/18 09:04:20;;;;;;;36.03;22.10;;;2.50;99.90;;;;;;5043976;28;20055;-73
2022/12/18 09:06:46;;;;;;;36.15;21.35;;;2.70;99.90;;;;;;5044864;28;20071;-72
2022/12/18 09:09:12;;;;;;;34.15;18.75;;;2.50;99.90;;;;;;5042793;28;20080;-73
2022/12/18 09:11:38;;;;;;;40.65;22.65;;;2.60;99.90;;;;;;5043146;28;20044;-72
2022/12/18 09:14:03;;;;;;;37.25;22.60;;;2.60;99.90;;;;;;5047176;28;20035;-72
2022/12/18 09:16:31;;;;;;;38.30;22.35;;;2.60;99.90;;;;;;5045771;28;20021;-72
2022/12/18 09:19:00;;;;;;;36.45;21.50;;;2.70;99.90;;;;;;5039710;28;20089;-72
2022/12/18 09:21:28;;;;;;;38.60;20.73;;;2.80;99.90;;;;;;5048922;28;20103;-72
2022/12/18 09:23:55;;;;;;;42.13;22.02;;;2.80;99.90;;;;;;5053410;28;20033;-73
2022/12/18 09:26:22;;;;;;;31.90;20.20;;;3.00;99.90;;;;;;5051568;28;20025;-73
2022/12/18 09:28:48;;;;;;;42.22;22.13;;;2.80;99.90;;;;;;5034153;28;20037;-72
2022/12/18 09:31:14;;;;;;;37.28;22.40;;;2.90;99.90;;;;;;5046120;28;20084;-72
2022/12/18 09:33:39;;;;;;;33.80;21.08;;;2.90;99.90;;;;;;5052835;28;20040;-73
2022/12/18 09:36:09;;;;;;;35.85;21.88;;;2.90;99.90;;;;;;5052830;28;20021;-73
2022/12/18 09:38:36;;;;;;;37.85;21.20;;;2.90;99.90;;;;;;5035549;28;20037;-72
2022/12/18 09:41:30;;;;;;;34.50;20.15;;;3.00;99.90;;;;;;5051011;28;20055;-72
2022/12/18 09:44:05;;;;;;;34.88;20.27;;;2.70;99.90;;;;;;5041728;28;20029;-72
2022/12/18 09:46:36;;;;;;;36.72;21.02;;;2.80;99.90;;;;;;5041408;28;20474;-73
2022/12/18 09:49:07;;;;;;;39.58;23.33;;;3.00;99.90;;;;;;5043403;28;20033;-74
2022/12/18 09:51:44;;;;;;;38.65;23.15;;;3.00;99.90;;;;;;5051055;28;20025;-73
2022/12/18 09:54:18;;;;;;;40.35;22.20;;;3.00;99.90;;;;;;5040283;28;20021;-73
2022/12/18 09:56:44;;;;;;;36.08;22.08;;;3.10;99.90;;;;;;5035076;28;20171;-73
2022/12/18 09:59:37;;;;;;;38.70;21.35;;;2.90;99.90;;;;;;5049389;28;20112;-72
2022/12/18 10:02:21;;;;;;;43.25;23.00;;;2.80;99.90;;;;;;4951513;28;20043;-73
2022/12/18 10:05:12;;;;;;;33.47;19.80;;;2.90;99.90;;;;;;4943760;29;20455;-72
2022/12/18 10:07:40;;;;;;;38.83;23.45;;;3.00;99.90;;;;;;4913236;29;20507;-73
2022/12/18 10:10:43;;;;;;;39.20;20.60;;;3.10;99.90;;;;;;4913311;29;20036;-73
2022/12/18 10:13:14;;;;;;;38.60;20.55;;;3.20;99.90;;;;;;4912060;29;20040;-73
2022/12/18 10:16:09;;;;;;;34.03;20.35;;;3.20;99.90;;;;;;4911842;29;20035;-73
2022/12/18 10:18:50;;;;;;;38.78;21.50;;;3.20;99.90;;;;;;4911169;29;20055;-73
2022/12/18 10:21:21;;;;;;;33.95;19.45;;;3.30;99.90;;;;;;4906132;29;20126;-74
2022/12/18 10:23:59;;;;;;;33.30;20.27;;;3.30;99.90;;;;;;4894737;29;20501;-73
2022/12/18 10:26:25;;;;;;;34.20;20.10;;;3.10;99.90;;;;;;4894555;29;20087;-74
2022/12/18 10:28:52;;;;;;;34.05;19.13;;;3.10;99.90;;;;;;4894686;29;20059;-74
2022/12/18 10:31:20;;;;;;;36.95;21.35;;;3.20;99.90;;;;;;4894235;29;20045;-73
2022/12/18 10:33:46;;;;;;;38.13;22.15;;;3.20;99.90;;;;;;4896038;29;20112;-74
2022/12/18 10:36:12;;;;;;;43.10;24.05;;;3.40;99.90;;;;;;4898210;29;20585;-72
2022/12/18 10:38:38;;;;;;;40.38;21.73;;;3.40;99.90;;;;;;4914700;29;20047;-73
2022/12/18 10:41:25;;;;;;;38.22;22.95;;;3.30;99.90;;;;;;4945508;29;20034;-73
2022/12/18 10:44:29;;;;;;;39.05;21.65;;;3.30;99.90;;;;;;4962178;28;20120;-73
2022/12/18 10:47:04;;;;;;;36.38;21.05;;;3.20;99.90;;;;;;4953996;28;20503;-72
2022/12/18 10:49:33;;;;;;;40.47;21.58;;;3.30;99.90;;;;;;4954761;29;20043;-73
2022/12/18 10:52:17;;;;;;;36.42;22.30;;;3.30;99.90;;;;;;4955085;29;20040;-72
2022/12/18 10:55:01;;;;;;;41.17;23.25;;;3.40;99.90;;;;;;4954992;29;20067;-73
2022/12/18 10:57:38;;;;;;;39.53;22.30;;;3.30;99.90;;;;;;4955057;29;20127;-73
2022/12/18 11:00:23;;;;;;;43.45;23.13;;;3.30;99.90;;;;;;4955072;28;20035;-72
2022/12/18 11:02:51;;;;;;;36.08;21.75;;;3.40;99.90;;;;;;4954825;29;20070;-73
2022/12/18 11:05:36;;;;;;;58.38;35.47;;;3.60;99.90;;;;;;4954991;29;20039;-72
2022/12/18 11:08:03;;;;;;;45.08;25.80;;;3.70;99.90;;;;;;4954870;29;20713;-73
2022/12/18 11:10:47;;;;;;;34.83;21.70;;;3.70;99.90;;;;;;4954469;29;20075;-73
2022/12/18 11:13:18;;;;;;;34.33;19.48;;;3.60;99.90;;;;;;4955080;29;20094;-73
2022/12/18 11:15:45;;;;;;;42.35;24.58;;;3.50;99.90;;;;;;4954850;29;20035;-73
2022/12/18 11:18:37;;;;;;;44.50;27.83;;;3.50;99.90;;;;;;4997865;28;20030;-72
2022/12/18 11:21:07;;;;;;;37.83;20.75;;;3.70;99.90;;;;;;5020002;28;20084;-71
2022/12/18 11:23:34;;;;;;;47.55;23.48;;;3.60;99.90;;;;;;5034836;28;20072;-71
2022/12/18 11:26:03;;;;;;;40.78;24.67;;;3.60;99.90;;;;;;5034687;28;20018;-72
2022/12/18 11:28:50;;;;;;;43.28;25.88;;;3.70;99.90;;;;;;5034993;28;20396;-72
2022/12/18 11:31:25;;;;;;;39.90;21.38;;;3.70;99.90;;;;;;5034728;28;20045;-73
2022/12/18 11:34:19;;;;;;;34.15;20.88;;;4.00;99.90;;;;;;5034793;28;20109;-72
2022/12/18 11:36:47;;;;;;;36.75;20.30;;;4.00;99.90;;;;;;5034917;28;20029;-73
2022/12/18 11:39:37;;;;;;;44.08;24.10;;;3.90;99.90;;;;;;5034672;28;20382;-72
2022/12/18 11:42:24;;;;;;;41.70;24.35;;;3.70;99.90;;;;;;5034519;28;20033;-72
2022/12/18 11:44:58;;;;;;;36.53;20.63;;;3.60;99.90;;;;;;5034662;28;20029;-72
2022/12/18 11:47:38;;;;;;;32.55;20.20;;;3.50;99.90;;;;;;5034709;28;20488;-73
2022/12/18 11:50:18;;;;;;;34.40;20.38;;;3.50;99.90;;;;;;5034044;28;20032;-72
2022/12/18 11:52:44;;;;;;;39.03;22.02;;;3.40;99.90;;;;;;5034037;28;20487;-73
2022/12/18 11:55:23;;;;;;;32.92;19.30;;;3.50;99.90;;;;;;5034274;28;20520;-72
2022/12/18 11:57:52;;;;;;;35.85;20.08;;;3.60;99.90;;;;;;5050531;28;20029;-74
2022/12/18 12:00:19;;;;;;;31.92;18.45;;;3.70;99.90;;;;;;5054186;28;20049;-72
2022/12/18 12:03:07;;;;;;;30.52;17.67;;;3.60;99.90;;;;;;5053528;28;20419;-73
2022/12/18 12:06:03;;;;;;;37.42;19.58;;;3.50;99.90;;;;;;5053866;28;20067;-73
2022/12/18 12:08:59;;;;;;;34.00;19.00;;;3.40;99.90;;;;;;5053696;28;20040;-72
2022/12/18 12:11:42;;;;;;;33.95;20.15;;;3.40;99.90;;;;;;5053993;28;20024;-72
2022/12/18 12:14:25;;;;;;;32.15;17.85;;;3.50;99.90;;;;;;5053919;28;20468;-71
2022/12/18 12:16:57;;;;;;;35.10;19.98;;;3.50;99.90;;;;;;5053723;28;20029;-72
2022/12/18 12:19:47;;;;;;;29.58;18.48;;;3.60;99.90;;;;;;5035857;28;20459;-72
2022/12/18 12:22:28;;;;;;;33.75;19.45;;;3.70;99.90;;;;;;5053842;28;20136;-72
2022/12/18 12:24:59;;;;;;;36.17;20.08;;;3.80;99.90;;;;;;5053149;28;20404;-72
2022/12/18 12:27:49;;;;;;;48.72;28.58;;;3.70;99.90;;;;;;5053571;28;20074;-72
2022/12/18 12:30:35;;;;;;;46.00;27.98;;;3.60;99.90;;;;;;5053573;28;20040;-72
2022/12/18 12:33:09;;;;;;;37.75;22.45;;;3.50;99.90;;;;;;5053358;28;20041;-71
2022/12/18 12:36:04;;;;;;;50.80;27.95;;;3.50;99.90;;;;;;5052853;28;20163;-72
2022/12/18 12:38:54;;;;;;;34.80;20.10;;;3.40;99.90;;;;;;5047006;28;20025;-71
2022/12/18 12:44:20;;;;;;;44.85;28.40;;;3.40;99.90;;;;;;5052788;28;20652;-74
2022/12/18 12:46:47;;;;;;;36.30;21.00;;;3.40;99.90;;;;;;5052630;28;20483;-73
2022/12/18 12:49:17;;;;;;;35.28;21.92;;;3.50;99.90;;;;;;5051073;28;20025;-73
2022/12/18 12:51:49;;;;;;;33.70;20.85;;;3.50;99.90;;;;;;5052405;28;20024;-72
2022/12/18 12:54:23;;;;;;;38.20;21.35;;;3.50;99.90;;;;;;5052378;28;20055;-73
2022/12/18 12:56:52;;;;;;;37.58;23.00;;;3.50;99.90;;;;;;5051783;28;20467;-72
2022/12/18 12:59:46;;;;;;;34.30;21.40;;;3.50;99.90;;;;;;5048281;28;20017;-73
2022/12/18 13:02:11;;;;;;;;;;;3.40;99.90;;;;;;5052073;28;20071;-73
2022/12/18 13:05:22;;;;;;;40.65;24.08;;;3.40;99.90;;;;;;5053012;28;19948;-73
2022/12/18 13:07:57;;;;;;;35.53;21.60;;;3.20;99.90;;;;;;5020803;28;20048;-73